sensor_id;sensor_type;location;lat;lon;timestamp;pressure;altitude;pressure_sealevel;temperature;humidity
72157;BME280;60035;52.122;5.406;2022-11-13T14:22:00;102284.19;;;15.56;54.80
72157;BME280;60035;52.122;5.406;2022-11-13T14:24:31;102280.88;;;16.13;53.13
72157;BME280;60035;52.122;5.406;2022-11-13T14:27:02;102286.00;;;16.43;52.14
72157;BME280;60035;52.122;5.406;2022-11-13T14:29:47;102286.56;;;16.25;51.96
72157;BME280;60035;52.122;5.406;2022-11-13T14:32:19;102286.41;;;16.01;51.63
72157;BME280;60035;52.122;5.406;2022-11-13T14:34:49;102288.72;;;15.79;51.62
72157;BME280;60035;52.122;5.406;2022-11-13T14:37:37;102286.84;;;15.53;51.94
72157;BME280;60035;52.122;5.406;2022-11-13T14:40:24;102284.00;;;15.30;52.80
72157;BME280;60035;52.122;5.406;2022-11-13T14:42:55;102285.19;;;15.17;52.67
72157;BME280;60035;52.122;5.406;2022-11-13T14:45:31;102282.97;;;15.03;53.05
72157;BME280;60035;52.122;5.406;2022-11-13T14:48:21;102272.13;;;14.90;53.19
72157;BME280;60035;52.122;5.406;2022-11-13T14:50:56;102274.13;;;14.77;54.14
72157;BME280;60035;52.122;5.406;2022-11-13T14:53:32;102265.84;;;14.64;53.77
72157;BME280;60035;52.122;5.406;2022-11-13T14:56:07;102266.06;;;14.54;54.17
72157;BME280;60035;52.122;5.406;2022-11-13T14:58:43;102261.13;;;14.44;54.42
72157;BME280;60035;52.122;5.406;2022-11-13T15:01:21;102269.06;;;14.35;54.76
72157;BME280;60035;52.122;5.406;2022-11-13T15:03:50;102265.03;;;14.23;55.60
72157;BME280;60035;52.122;5.406;2022-11-13T15:06:24;102259.25;;;14.13;55.31
72157;BME280;60035;52.122;5.406;2022-11-13T15:08:55;102256.88;;;14.04;55.65
72157;BME280;60035;52.122;5.406;2022-11-13T15:11:24;102261.34;;;13.94;56.20
72157;BME280;60035;52.122;5.406;2022-11-13T15:13:51;102252.97;;;13.85;56.43
72157;BME280;60035;52.122;5.406;2022-11-13T15:16:22;102246.34;;;13.73;56.77
72157;BME280;60035;52.122;5.406;2022-11-13T15:21:19;102248.38;;;13.57;57.62
72157;BME280;60035;52.122;5.406;2022-11-13T15:23:46;102236.56;;;13.46;57.62
72157;BME280;60035;52.122;5.406;2022-11-13T15:26:12;102232.47;;;13.38;58.19
72157;BME280;60035;52.122;5.406;2022-11-13T15:28:39;102230.84;;;13.29;57.88
72157;BME280;60035;52.122;5.406;2022-11-13T15:31:28;102229.28;;;13.20;58.58
72157;BME280;60035;52.122;5.406;2022-11-13T15:33:55;102219.19;;;13.09;58.84
72157;BME280;60035;52.122;5.406;2022-11-13T15:36:21;102231.50;;;12.92;60.57
72157;BME280;60035;52.122;5.406;2022-11-13T15:38:54;102232.72;;;12.71;61.99
72157;BME280;60035;52.122;5.406;2022-11-13T15:41:22;102235.53;;;12.54;62.81
72157;BME280;60035;52.122;5.406;2022-11-13T15:43:52;102238.41;;;12.33;63.36
72157;BME280;60035;52.122;5.406;2022-11-13T15:46:21;102232.69;;;12.16;64.25
72157;BME280;60035;52.122;5.406;2022-11-13T15:48:48;102234.56;;;12.02;64.65
72157;BME280;60035;52.122;5.406;2022-11-13T15:51:23;102230.44;;;11.88;65.47
72157;BME280;60035;52.122;5.406;2022-11-13T15:53:56;102226.34;;;11.72;65.96
72157;BME280;60035;52.122;5.406;2022-11-13T15:56:24;102227.38;;;11.57;66.48
72157;BME280;60035;52.122;5.406;2022-11-13T15:58:51;102224.09;;;11.44;67.18
72157;BME280;60035;52.122;5.406;2022-11-13T16:01:18;102229.38;;;11.31;67.27
72157;BME280;60035;52.122;5.406;2022-11-13T16:03:45;102232.91;;;11.18;67.77
72157;BME280;60035;52.122;5.406;2022-11-13T16:06:14;102233.91;;;11.02;68.62
72157;BME280;60035;52.122;5.406;2022-11-13T16:12:29;102235.78;;;10.79;68.96
72157;BME280;60035;52.122;5.406;2022-11-13T16:14:55;102234.16;;;10.67;69.49
72157;BME280;60035;52.122;5.406;2022-11-13T16:17:22;102236.00;;;10.52;69.91
72157;BME280;60035;52.122;5.406;2022-11-13T16:19:51;102234.41;;;10.32;71.00
72157;BME280;60035;52.122;5.406;2022-11-13T16:22:22;102229.34;;;10.18;71.68
72157;BME280;60035;52.122;5.406;2022-11-13T16:24:48;102232.81;;;10.06;71.95
72157;BME280;60035;52.122;5.406;2022-11-13T16:27:25;102232.00;;;9.98;72.39
72157;BME280;60035;52.122;5.406;2022-11-13T16:29:52;102232.91;;;9.92;72.53
72157;BME280;60035;52.122;5.406;2022-11-13T16:32:19;102222.69;;;9.81;72.56
72157;BME280;60035;52.122;5.406;2022-11-13T16:34:46;102219.34;;;9.70;73.16
72157;BME280;60035;52.122;5.406;2022-11-13T16:37:21;102212.53;;;9.61;73.59
72157;BME280;60035;52.122;5.406;2022-11-13T16:39:48;102203.19;;;9.51;73.67
72157;BME280;60035;52.122;5.406;2022-11-13T16:42:15;102202.38;;;9.37;74.56
72157;BME280;60035;52.122;5.406;2022-11-13T16:44:42;102206.66;;;9.25;74.81
72157;BME280;60035;52.122;5.406;2022-11-13T16:47:20;102202.41;;;9.18;75.71
72157;BME280;60035;52.122;5.406;2022-11-13T16:49:48;102199.88;;;9.10;75.77
72157;BME280;60035;52.122;5.406;2022-11-13T16:52:15;102197.34;;;9.03;76.09
72157;BME280;60035;52.122;5.406;2022-11-13T16:54:41;102193.09;;;8.91;76.28
72157;BME280;60035;52.122;5.406;2022-11-13T16:57:12;102195.66;;;8.80;76.60
72157;BME280;60035;52.122;5.406;2022-11-13T16:59:39;102197.38;;;8.73;76.68
72157;BME280;60035;52.122;5.406;2022-11-13T17:02:14;102186.28;;;8.63;77.13
72157;BME280;60035;52.122;5.406;2022-11-13T17:08:01;102185.41;;;8.46;78.01
72157;BME280;60035;52.122;5.406;2022-11-13T17:10:28;102181.13;;;8.36;78.10
72157;BME280;60035;52.122;5.406;2022-11-13T17:12:58;102175.16;;;8.32;78.35
72157;BME280;60035;52.122;5.406;2022-11-13T17:15:24;102175.16;;;8.24;78.53
72157;BME280;60035;52.122;5.406;2022-11-13T17:17:55;102163.22;;;8.18;78.35
72157;BME280;60035;52.122;5.406;2022-11-13T17:20:21;102164.06;;;8.13;78.38
72157;BME280;60035;52.122;5.406;2022-11-13T17:22:48;102171.69;;;8.00;78.79
72157;BME280;60035;52.122;5.406;2022-11-13T17:25:15;102164.88;;;7.90;79.36
72157;BME280;60035;52.122;5.406;2022-11-13T17:27:42;102156.34;;;7.87;79.84
72157;BME280;60035;52.122;5.406;2022-11-13T17:30:10;102147.00;;;7.82;79.71
72157;BME280;60035;52.122;5.406;2022-11-13T17:32:37;102155.47;;;7.81;80.05
72157;BME280;60035;52.122;5.406;2022-11-13T17:35:04;102153.75;;;7.77;79.76
72157;BME280;60035;52.122;5.406;2022-11-13T17:37:33;102150.34;;;7.71;79.85
72157;BME280;60035;52.122;5.406;2022-11-13T17:40:00;102152.03;;;7.65;80.38
72157;BME280;60035;52.122;5.406;2022-11-13T17:42:26;102150.31;;;7.58;81.03
72157;BME280;60035;52.122;5.406;2022-11-13T17:45:28;102156.19;;;7.48;81.04
72157;BME280;60035;52.122;5.406;2022-11-13T17:47:54;102167.19;;;7.41;81.06
72157;BME280;60035;52.122;5.406;2022-11-13T17:57:29;102168.75;;;7.12;81.62
72157;BME280;60035;52.122;5.406;2022-11-13T17:59:56;102171.25;;;7.06;82.31
72157;BME280;60035;52.122;5.406;2022-11-13T18:02:23;102173.78;;;7.03;82.32
72157;BME280;60035;52.122;5.406;2022-11-13T18:04:52;102172.91;;;7.01;82.27
72157;BME280;60035;52.122;5.406;2022-11-13T18:07:21;102169.50;;;6.99;82.16
72157;BME280;60035;52.122;5.406;2022-11-13T18:09:48;102167.78;;;6.96;82.15
72157;BME280;60035;52.122;5.406;2022-11-13T18:12:14;102173.72;;;6.91;82.11
72157;BME280;60035;52.122;5.406;2022-11-13T18:14:41;102171.94;;;6.83;82.54
72157;BME280;60035;52.122;5.406;2022-11-13T18:17:07;102165.94;;;6.75;82.65
72157;BME280;60035;52.122;5.406;2022-11-13T18:19:34;102171.78;;;6.60;82.94
72157;BME280;60035;52.122;5.406;2022-11-13T18:22:00;102175.13;;;6.56;83.71
72157;BME280;60035;52.122;5.406;2022-11-13T18:24:26;102164.91;;;6.53;83.81
72157;BME280;60035;52.122;5.406;2022-11-13T18:26:53;102160.63;;;6.50;83.64
72157;BME280;60035;52.122;5.406;2022-11-13T18:29:20;102160.63;;;6.46;84.03
72157;BME280;60035;52.122;5.406;2022-11-13T18:31:47;102166.53;;;6.43;83.83
72157;BME280;60035;52.122;5.406;2022-11-13T18:34:15;102158.03;;;6.43;83.71
72157;BME280;60035;52.122;5.406;2022-11-13T18:36:42;102153.75;;;6.39;83.72
72157;BME280;60035;52.122;5.406;2022-11-13T18:39:09;102150.31;;;6.33;84.07
72157;BME280;60035;52.122;5.406;2022-11-13T18:41:41;102145.19;;;6.29;84.29
72157;BME280;60035;52.122;5.406;2022-11-13T18:44:08;102146.00;;;6.26;84.66
72157;BME280;60035;52.122;5.406;2022-11-13T18:46:34;102140.94;;;6.26;84.42
72157;BME280;60035;52.122;5.406;2022-11-13T18:49:01;102137.53;;;6.26;84.40
72157;BME280;60035;52.122;5.406;2022-11-13T18:51:29;102136.66;;;6.24;84.27
72157;BME280;60035;52.122;5.406;2022-11-13T18:53:55;102127.31;;;6.20;84.11
72157;BME280;60035;52.122;5.406;2022-11-13T18:56:24;102128.97;;;6.19;83.69
72157;BME280;60035;52.122;5.406;2022-11-13T18:58:53;102135.75;;;6.17;83.73
72157;BME280;60035;52.122;5.406;2022-11-13T19:01:31;102136.50;;;6.10;84.15
72157;BME280;60035;52.122;5.406;2022-11-13T19:04:03;102131.34;;;6.00;83.96
72157;BME280;60035;52.122;5.406;2022-11-13T19:06:48;102121.09;;;5.94;84.39
72157;BME280;60035;52.122;5.406;2022-11-13T19:09:16;102123.56;;;5.90;84.42
72157;BME280;60035;52.122;5.406;2022-11-13T19:11:43;102123.53;;;5.87;84.43
72157;BME280;60035;52.122;5.406;2022-11-13T19:14:13;102125.19;;;5.81;84.36
72157;BME280;60035;52.122;5.406;2022-11-13T19:16:40;102130.25;;;5.78;84.42
72157;BME280;60035;52.122;5.406;2022-11-13T19:19:13;102119.19;;;5.76;84.59
72157;BME280;60035;52.122;5.406;2022-11-13T19:21:40;102122.50;;;5.69;84.91
72157;BME280;60035;52.122;5.406;2022-11-13T19:24:08;102116.53;;;5.64;84.74
72157;BME280;60035;52.122;5.406;2022-11-13T19:26:34;102121.53;;;5.61;85.36
72157;BME280;60035;52.122;5.406;2022-11-13T19:29:01;102122.41;;;5.60;85.45
72157;BME280;60035;52.122;5.406;2022-11-13T19:31:27;102114.72;;;5.55;85.43
72157;BME280;60035;52.122;5.406;2022-11-13T19:33:55;102121.41;;;5.50;85.48
72157;BME280;60035;52.122;5.406;2022-11-13T19:36:22;102115.47;;;5.48;85.47
72157;BME280;60035;52.122;5.406;2022-11-13T19:38:51;102122.22;;;5.46;85.20
72157;BME280;60035;52.122;5.406;2022-11-13T19:41:18;102118.81;;;5.44;85.20
72157;BME280;60035;52.122;5.406;2022-11-13T19:43:45;102110.28;;;5.37;85.07
72157;BME280;60035;52.122;5.406;2022-11-13T19:46:14;102106.03;;;5.36;85.63
72157;BME280;60035;52.122;5.406;2022-11-13T19:48:42;102105.16;;;5.36;85.77
72157;BME280;60035;52.122;5.406;2022-11-13T19:51:14;102095.81;;;5.33;85.48
72157;BME280;60035;52.122;5.406;2022-11-13T19:53:41;102092.41;;;5.32;85.88
72157;BME280;60035;52.122;5.406;2022-11-13T19:56:18;102085.66;;;5.33;85.89
72157;BME280;60035;52.122;5.406;2022-11-13T19:58:47;102077.16;;;5.31;85.70
72157;BME280;60035;52.122;5.406;2022-11-13T20:01:16;102071.22;;;5.30;85.81
72157;BME280;60035;52.122;5.406;2022-11-13T20:03:44;102073.75;;;5.29;85.86
72157;BME280;60035;52.122;5.406;2022-11-13T20:06:12;102078.81;;;5.27;85.98
72157;BME280;60035;52.122;5.406;2022-11-13T20:08:40;102075.44;;;5.27;86.03
72157;BME280;60035;52.122;5.406;2022-11-13T20:11:09;102076.25;;;5.26;86.52
72157;BME280;60035;52.122;5.406;2022-11-13T20:13:37;102077.00;;;5.18;86.17
72157;BME280;60035;52.122;5.406;2022-11-13T20:16:05;102070.19;;;5.14;86.64
72157;BME280;60035;52.122;5.406;2022-11-13T20:18:32;102071.84;;;5.11;86.36
72157;BME280;60035;52.122;5.406;2022-11-13T20:20:59;102069.22;;;5.06;86.13
72157;BME280;60035;52.122;5.406;2022-11-13T20:23:26;102052.25;;;5.02;86.32
72157;BME280;60035;52.122;5.406;2022-11-13T20:25:57;102053.91;;;5.00;86.52
72157;BME280;60035;52.122;5.406;2022-11-13T20:28:26;102059.84;;;4.99;86.44
72157;BME280;60035;52.122;5.406;2022-11-13T20:31:11;102052.22;;;4.97;86.26
72157;BME280;60035;52.122;5.406;2022-11-13T20:33:41;102053.88;;;4.97;86.30
72157;BME280;60035;52.122;5.406;2022-11-13T20:36:08;102053.88;;;4.95;86.03
72157;BME280;60035;52.122;5.406;2022-11-13T20:38:34;102045.34;;;4.93;86.33
72157;BME280;60035;52.122;5.406;2022-11-13T20:41:05;102048.75;;;4.92;86.08
72157;BME280;60035;52.122;5.406;2022-11-13T20:43:32;102041.06;;;4.89;86.55
72157;BME280;60035;52.122;5.406;2022-11-13T20:46:05;102037.66;;;4.86;86.34
72157;BME280;60035;52.122;5.406;2022-11-13T20:48:32;102035.06;;;4.82;86.52
72157;BME280;60035;52.122;5.406;2022-11-13T20:51:17;102030.81;;;4.81;86.35
72157;BME280;60035;52.122;5.406;2022-11-13T20:53:45;102029.94;;;4.78;86.27
72157;BME280;60035;52.122;5.406;2022-11-13T20:56:12;102026.53;;;4.77;86.67
72157;BME280;60035;52.122;5.406;2022-11-13T20:58:39;102028.97;;;4.70;86.76
72157;BME280;60035;52.122;5.406;2022-11-13T21:01:08;102034.88;;;4.67;86.70
72157;BME280;60035;52.122;5.406;2022-11-13T21:03:40;102038.22;;;4.64;86.71
72157;BME280;60035;52.122;5.406;2022-11-13T21:06:09;102032.28;;;4.65;86.54
72157;BME280;60035;52.122;5.406;2022-11-13T21:08:36;102036.44;;;4.60;86.59
72157;BME280;60035;52.122;5.406;2022-11-13T21:11:03;102032.16;;;4.56;86.84
72157;BME280;60035;52.122;5.406;2022-11-13T21:13:32;102022.75;;;4.49;86.98
72157;BME280;60035;52.122;5.406;2022-11-13T21:16:03;102020.22;;;4.49;87.07
72157;BME280;60035;52.122;5.406;2022-11-13T21:18:29;102014.28;;;4.47;87.43
72157;BME280;60035;52.122;5.406;2022-11-13T21:21:08;102007.44;;;4.43;87.29
72157;BME280;60035;52.122;5.406;2022-11-13T21:23:35;102004.91;;;4.41;87.43
72157;BME280;60035;52.122;5.406;2022-11-13T21:26:03;102003.16;;;4.39;87.49
72157;BME280;60035;52.122;5.406;2022-11-13T21:28:30;102001.47;;;4.39;87.76
72157;BME280;60035;52.122;5.406;2022-11-13T21:33:35;101999.81;;;4.41;87.78
72157;BME280;60035;52.122;5.406;2022-11-13T21:36:04;102000.66;;;4.40;87.65
72157;BME280;60035;52.122;5.406;2022-11-13T21:38:31;101998.06;;;4.37;87.86
72157;BME280;60035;52.122;5.406;2022-11-13T21:41:04;101995.53;;;4.36;87.90
72157;BME280;60035;52.122;5.406;2022-11-13T21:44:00;101986.16;;;4.31;88.14
72157;BME280;60035;52.122;5.406;2022-11-13T21:46:33;101982.72;;;4.28;88.17
72157;BME280;60035;52.122;5.406;2022-11-13T21:49:04;101984.38;;;4.26;88.04
72157;BME280;60035;52.122;5.406;2022-11-13T21:51:33;101991.06;;;4.21;87.68
72157;BME280;60035;52.122;5.406;2022-11-13T21:54:00;101989.28;;;4.15;87.90
72157;BME280;60035;52.122;5.406;2022-11-13T21:56:28;101990.91;;;4.11;87.78
72157;BME280;60035;52.122;5.406;2022-11-13T21:58:55;101989.22;;;4.10;87.71
72157;BME280;60035;52.122;5.406;2022-11-13T22:01:22;101988.34;;;4.10;87.94
72157;BME280;60035;52.122;5.406;2022-11-13T22:03:49;101990.03;;;4.09;87.87
72157;BME280;60035;52.122;5.406;2022-11-13T22:08:59;101978.13;;;4.04;88.26
72157;BME280;60035;52.122;5.406;2022-11-13T22:11:33;101978.97;;;4.03;88.09
72157;BME280;60035;52.122;5.406;2022-11-13T22:14:00;101982.31;;;4.02;88.28
72157;BME280;60035;52.122;5.406;2022-11-13T22:16:30;101981.41;;;3.99;88.88
72157;BME280;60035;52.122;5.406;2022-11-13T22:18:59;101969.59;;;3.97;88.65
72157;BME280;60035;52.122;5.406;2022-11-13T22:21:27;101971.25;;;3.96;88.42
72157;BME280;60035;52.122;5.406;2022-11-13T22:23:54;101961.94;;;3.95;88.40
72157;BME280;60035;52.122;5.406;2022-11-13T22:26:22;101968.69;;;3.93;88.29
72157;BME280;60035;52.122;5.406;2022-11-13T22:28:49;101960.19;;;3.93;88.55
72157;BME280;60035;52.122;5.406;2022-11-13T22:31:21;101964.44;;;3.92;88.58
72157;BME280;60035;52.122;5.406;2022-11-13T22:33:48;101961.94;;;3.95;89.18
72157;BME280;60035;52.122;5.406;2022-11-13T22:36:22;101961.06;;;3.93;88.97
72157;BME280;60035;52.122;5.406;2022-11-13T22:38:49;101961.91;;;3.92;89.00
72157;BME280;60035;52.122;5.406;2022-11-13T22:41:22;101964.44;;;3.92;89.19
72157;BME280;60035;52.122;5.406;2022-11-13T22:43:51;101955.13;;;3.93;89.49
72157;BME280;60035;52.122;5.406;2022-11-13T22:46:20;101950.06;;;3.93;89.13
72157;BME280;60035;52.122;5.406;2022-11-13T22:48:48;101952.66;;;3.94;89.06
72157;BME280;60035;52.122;5.406;2022-11-13T22:51:16;101955.19;;;3.94;88.90
72157;BME280;60035;52.122;5.406;2022-11-13T22:53:48;101956.00;;;3.93;88.92
72157;BME280;60035;52.122;5.406;2022-11-13T22:56:15;101960.25;;;3.94;88.97
72157;BME280;60035;52.122;5.406;2022-11-13T22:58:42;101945.06;;;3.96;88.83
72157;BME280;60035;52.122;5.406;2022-11-13T23:01:13;101940.13;;;4.04;89.32
72157;BME280;60035;52.122;5.406;2022-11-13T23:03:41;101939.41;;;4.14;89.49
72157;BME280;60035;52.122;5.406;2022-11-13T23:06:09;101937.91;;;4.27;89.66
72157;BME280;60035;52.122;5.406;2022-11-13T23:08:37;101935.50;;;4.34;90.03
72157;BME280;60035;52.122;5.406;2022-11-13T23:11:05;101922.84;;;4.38;89.94
72157;BME280;60035;52.122;5.406;2022-11-13T23:13:32;101921.28;;;4.46;90.66
72157;BME280;60035;52.122;5.406;2022-11-13T23:16:00;101917.16;;;4.54;90.46
72157;BME280;60035;52.122;5.406;2022-11-13T23:18:30;101907.03;;;4.57;90.11
72157;BME280;60035;52.122;5.406;2022-11-13T23:20:57;101916.34;;;4.57;90.35
72157;BME280;60035;52.122;5.406;2022-11-13T23:23:24;101903.59;;;4.54;90.08
72157;BME280;60035;52.122;5.406;2022-11-13T23:25:50;101902.78;;;4.55;90.36
72157;BME280;60035;52.122;5.406;2022-11-13T23:28:17;101903.56;;;4.49;89.22
72157;BME280;60035;52.122;5.406;2022-11-13T23:30:43;101896.78;;;4.46;89.55
72157;BME280;60035;52.122;5.406;2022-11-13T23:33:10;101898.47;;;4.46;89.43
72157;BME280;60035;52.122;5.406;2022-11-13T23:35:36;101903.53;;;4.46;89.78
72157;BME280;60035;52.122;5.406;2022-11-13T23:38:03;101896.78;;;4.49;89.71
72157;BME280;60035;52.122;5.406;2022-11-13T23:40:29;101900.22;;;4.52;89.82
72157;BME280;60035;52.122;5.406;2022-11-13T23:42:55;101901.94;;;4.53;89.55
72157;BME280;60035;52.122;5.406;2022-11-13T23:45:22;101902.78;;;4.53;89.61
72157;BME280;60035;52.122;5.406;2022-11-13T23:47:49;101896.88;;;4.56;89.82
72157;BME280;60035;52.122;5.406;2022-11-13T23:50:15;101896.91;;;4.57;89.81
72157;BME280;60035;52.122;5.406;2022-11-13T23:52:41;101897.78;;;4.59;89.73
72157;BME280;60035;52.122;5.406;2022-11-13T23:55:08;101901.16;;;4.58;90.05
72157;BME280;60035;52.122;5.406;2022-11-13T23:57:35;101898.59;;;4.58;89.81
